createdAt,value
2023-01-29T00:04:07.235Z,26.05
2023-01-29T00:09:12.068Z,26.92
2023-01-29T00:14:17.869Z,27.20
2023-01-29T00:19:22.541Z,23.90
2023-01-29T00:24:27.005Z,28.13
2023-01-29T00:29:33.049Z,23.70
2023-01-29T00:34:37.385Z,21.55
2023-01-29T00:39:48.169Z,18.45
2023-01-29T00:45:00.595Z,17.95
2023-01-29T00:50:07.456Z,24.13
2023-01-29T00:55:13.327Z,18.52
2023-01-29T01:00:21.300Z,20.58
2023-01-29T01:05:26.017Z,18.98
2023-01-29T01:10:32.463Z,19.23
2023-01-29T01:15:41.831Z,25.98
2023-01-29T01:20:46.190Z,27.35
2023-01-29T01:25:50.666Z,23.55
2023-01-29T01:30:56.726Z,24.35
2023-01-29T01:36:03.167Z,24.60
2023-01-29T01:41:07.813Z,26.90
2023-01-29T01:46:13.613Z,25.98
2023-01-29T01:56:28.049Z,20.80
2023-01-29T02:01:34.651Z,20.25
2023-01-29T02:06:59.156Z,25.65
2023-01-29T02:12:05.304Z,20.17
2023-01-29T02:17:14.275Z,21.50
2023-01-29T02:22:54.133Z,20.65
2023-01-29T02:28:17.333Z,16.80
2023-01-29T02:33:31.391Z,22.83
2023-01-29T02:38:44.379Z,19.10
2023-01-29T02:43:56.658Z,21.88
2023-01-29T02:49:09.753Z,16.90
2023-01-29T02:54:21.731Z,21.60
2023-01-29T02:59:34.367Z,18.00
2023-01-29T03:04:46.602Z,16.63
2023-01-29T03:09:55.164Z,16.95
2023-01-29T03:15:17.010Z,17.08
2023-01-29T03:20:48.909Z,18.52
2023-01-29T03:26:17.530Z,19.57
2023-01-29T03:31:42.144Z,13.88
2023-01-29T03:36:55.934Z,14.07
2023-01-29T03:42:06.980Z,15.60
2023-01-29T03:47:20.788Z,15.00
2023-01-29T03:52:30.373Z,16.23
2023-01-29T03:57:40.905Z,14.00
2023-01-29T04:02:58.634Z,12.90
2023-01-29T04:08:08.444Z,16.63
2023-01-29T04:13:15.105Z,12.15
2023-01-29T04:18:23.014Z,12.25
2023-01-29T04:23:45.171Z,17.67
2023-01-29T04:29:00.457Z,14.30
2023-01-29T04:34:19.261Z,12.43
2023-01-29T04:39:28.832Z,12.30
2023-01-29T04:44:39.842Z,14.15
2023-01-29T04:49:50.222Z,16.35
2023-01-29T04:55:05.424Z,17.02
2023-01-29T05:00:16.745Z,13.97
2023-01-29T05:05:23.453Z,14.88
2023-01-29T05:10:28.350Z,15.02
2023-01-29T05:15:39.689Z,15.33
2023-01-29T05:20:46.437Z,15.55
2023-01-29T05:25:52.769Z,15.77
2023-01-29T05:30:58.354Z,15.50
2023-01-29T05:41:09.397Z,14.60
2023-01-29T05:46:13.877Z,15.15
2023-01-29T05:51:19.685Z,15.18
2023-01-29T05:56:25.407Z,19.45
2023-01-29T06:06:35.137Z,15.48
2023-01-29T06:16:43.602Z,22.05
2023-01-29T06:21:49.283Z,20.13
2023-01-29T06:31:57.703Z,20.75
2023-01-29T06:37:03.857Z,19.13
2023-01-29T06:42:08.658Z,20.58
2023-01-29T06:47:13.087Z,17.10
2023-01-29T06:52:18.793Z,17.48
2023-01-29T07:02:27.121Z,23.70
2023-01-29T07:07:33.153Z,19.60
2023-01-29T07:12:37.645Z,16.15
2023-01-29T07:17:42.076Z,17.67
2023-01-29T07:22:47.828Z,20.52
2023-01-29T07:27:52.201Z,19.63
2023-01-29T07:32:56.453Z,20.58
2023-01-29T07:38:02.195Z,22.40
2023-01-29T07:43:08.762Z,15.13
2023-01-29T07:48:14.330Z,18.92
2023-01-29T07:53:20.135Z,14.07
2023-01-29T07:58:24.737Z,20.65
2023-01-29T08:03:29.212Z,17.67
2023-01-29T08:08:34.998Z,13.52
2023-01-29T08:13:39.332Z,19.88
2023-01-29T08:18:47.710Z,17.63
2023-01-29T08:23:53.452Z,16.92
2023-01-29T08:28:57.777Z,23.60
2023-01-29T08:34:02.481Z,25.37
2023-01-29T08:39:08.487Z,17.48
2023-01-29T08:44:12.868Z,20.38
2023-01-29T08:49:17.335Z,15.82
2023-01-29T08:54:23.621Z,14.20
2023-01-29T08:59:28.082Z,12.70
2023-01-29T09:04:32.662Z,11.13
2023-01-29T09:09:38.628Z,5.70
2023-01-29T09:14:43.145Z,9.85
2023-01-29T09:19:47.641Z,8.40
2023-01-29T09:24:53.588Z,4.60
2023-01-29T09:29:58.085Z,8.05
2023-01-29T09:35:02.880Z,9.52
2023-01-29T09:40:19.130Z,11.77
2023-01-29T09:45:25.917Z,10.45
2023-01-29T09:50:33.729Z,11.48
2023-01-29T09:55:44.688Z,9.68
2023-01-29T10:00:56.522Z,7.97
2023-01-29T10:06:22.613Z,12.20
2023-01-29T10:11:39.459Z,8.18
2023-01-29T10:16:56.986Z,10.10
2023-01-29T10:22:22.639Z,12.30
2023-01-29T10:27:34.667Z,11.43
2023-01-29T10:32:39.288Z,22.20
2023-01-29T10:37:45.054Z,16.88
2023-01-29T10:48:36.738Z,20.42
2023-01-29T10:53:50.455Z,20.52
2023-01-29T10:59:00.852Z,9.95
2023-01-29T11:04:07.713Z,12.85
2023-01-29T11:09:21.838Z,17.02
2023-01-29T11:14:31.430Z,23.27
2023-01-29T11:19:44.135Z,15.20
2023-01-29T11:25:08.134Z,23.98
2023-01-29T11:30:23.470Z,18.17
2023-01-29T11:35:30.309Z,23.63
2023-01-29T11:40:38.032Z,24.63
2023-01-29T11:45:44.007Z,17.75
2023-01-29T11:50:54.974Z,22.70
2023-01-29T11:55:59.382Z,18.50
2023-01-29T12:01:06.493Z,18.77
2023-01-29T12:06:19.805Z,20.23
2023-01-29T12:11:30.375Z,16.27
2023-01-29T12:16:41.905Z,18.77
2023-01-29T12:21:50.913Z,14.40
2023-01-29T12:27:00.786Z,13.73
2023-01-29T12:32:16.035Z,13.02
2023-01-29T12:37:25.165Z,9.90
2023-01-29T12:42:30.112Z,11.63
2023-01-29T12:47:42.311Z,12.52
2023-01-29T12:52:50.650Z,13.60
2023-01-29T12:57:58.778Z,10.65
2023-01-29T13:03:17.347Z,12.80
2023-01-29T13:08:26.362Z,17.95
2023-01-29T13:13:34.436Z,17.42
2023-01-29T13:18:45.492Z,14.70
2023-01-29T13:23:53.157Z,15.18
2023-01-29T13:28:59.114Z,24.58
2023-01-29T13:34:14.696Z,19.33
2023-01-29T13:39:25.164Z,29.30
2023-01-29T13:44:33.083Z,28.20
2023-01-29T13:49:41.457Z,25.45
2023-01-29T13:54:54.133Z,53.42
2023-01-29T13:59:59.025Z,45.08
2023-01-29T14:05:39.416Z,23.25
2023-01-29T14:10:45.068Z,39.45
2023-01-29T14:16:29.659Z,23.85
2023-01-29T14:21:39.141Z,30.43
2023-01-29T14:26:46.063Z,24.75
2023-01-29T14:31:53.950Z,25.70
2023-01-29T14:37:04.020Z,37.35
2023-01-29T14:42:23.252Z,23.05
2023-01-29T14:48:10.044Z,26.33
2023-01-29T14:53:21.485Z,31.13
2023-01-29T14:58:32.303Z,21.02
2023-01-29T15:03:44.408Z,20.60
2023-01-29T15:08:57.105Z,21.63
2023-01-29T15:14:08.116Z,25.05
2023-01-29T15:19:19.696Z,20.70
2023-01-29T15:24:25.447Z,31.58
2023-01-29T15:34:35.443Z,32.88
2023-01-29T15:39:45.554Z,24.05
2023-01-29T15:44:49.949Z,27.98
2023-01-29T15:49:54.421Z,26.60
2023-01-29T15:55:05.795Z,21.63
2023-01-29T16:00:23.523Z,30.73
2023-01-29T16:05:33.147Z,42.17
2023-01-29T16:10:39.048Z,34.38
2023-01-29T16:15:56.508Z,53.38
2023-01-29T16:21:05.461Z,51.70
2023-01-29T16:26:17.196Z,45.47
2023-01-29T16:31:29.449Z,47.90
2023-01-29T16:36:35.102Z,47.22
2023-01-29T16:41:40.836Z,45.38
2023-01-29T16:57:02.128Z,49.85
2023-01-29T17:02:21.445Z,42.05
2023-01-29T17:07:26.552Z,47.78
2023-01-29T17:12:33.764Z,60.60
2023-01-29T17:17:38.265Z,65.93
2023-01-29T17:22:42.910Z,49.97
2023-01-29T17:27:51.872Z,54.78
2023-01-29T17:32:56.349Z,48.97
2023-01-29T17:38:00.892Z,54.72
2023-01-29T17:43:07.640Z,43.35
2023-01-29T17:48:16.539Z,43.22
2023-01-29T17:53:21.963Z,38.05
2023-01-29T17:58:29.056Z,44.80
2023-01-29T18:03:33.819Z,31.60
2023-01-29T18:08:41.060Z,30.15
2023-01-29T18:13:47.372Z,27.27
2023-01-29T18:18:52.314Z,37.05
2023-01-29T18:23:56.742Z,39.87
2023-01-29T18:29:02.557Z,40.67
2023-01-29T18:39:11.933Z,38.58
2023-01-29T18:44:17.964Z,44.85
2023-01-29T18:49:22.215Z,44.25
2023-01-29T18:54:27.072Z,51.13
2023-01-29T18:59:32.784Z,43.83
2023-01-29T19:04:37.253Z,44.45
2023-01-29T19:09:42.308Z,47.38
2023-01-29T19:14:48.187Z,50.17
2023-01-29T19:31:08.085Z,53.67
2023-01-29T19:36:13.736Z,51.08
2023-01-29T19:46:24.512Z,42.13
2023-01-29T19:51:29.329Z,37.15
2023-01-29T19:56:35.874Z,37.25
2023-01-29T20:01:42.128Z,42.67
2023-01-29T20:06:46.663Z,36.72
2023-01-29T20:11:51.217Z,31.98
2023-01-29T20:16:57.188Z,35.47
2023-01-29T20:22:01.722Z,39.60
2023-01-29T20:27:06.796Z,29.73
2023-01-29T20:32:14.608Z,44.55
2023-01-29T20:37:19.489Z,29.45
2023-01-29T20:42:31.391Z,34.53
2023-01-29T20:47:37.583Z,34.65
2023-01-29T20:52:43.015Z,32.22
2023-01-29T20:58:05.770Z,33.63
2023-01-29T21:03:12.541Z,40.90
2023-01-29T21:08:17.343Z,35.80
2023-01-29T21:13:21.951Z,31.48
2023-01-29T21:18:28.016Z,35.92
2023-01-29T21:23:32.558Z,32.45
2023-01-29T21:28:37.145Z,41.92
2023-01-29T21:33:43.201Z,36.38
2023-01-29T21:38:47.662Z,39.67
2023-01-29T21:43:52.114Z,34.75
2023-01-29T21:48:57.984Z,41.45
2023-01-29T21:59:08.086Z,33.05
2023-01-29T22:04:15.795Z,49.13
2023-01-29T22:09:20.176Z,30.05
2023-01-29T22:14:24.701Z,31.38
2023-01-29T22:19:30.962Z,30.52
2023-01-29T22:24:35.587Z,27.98
2023-01-29T22:29:40.021Z,30.35
2023-01-29T22:34:45.930Z,27.55
2023-01-29T22:39:50.700Z,31.40
2023-01-29T22:44:55.230Z,23.80
2023-01-29T22:50:01.278Z,27.50
2023-01-29T22:55:08.667Z,31.58
2023-01-29T23:00:13.983Z,28.98
2023-01-29T23:05:19.957Z,23.92
2023-01-29T23:10:24.509Z,27.83
2023-01-29T23:15:28.946Z,32.58
2023-01-29T23:20:34.867Z,31.35
2023-01-29T23:25:56.585Z,41.45
2023-01-29T23:31:01.100Z,31.60
2023-01-29T23:36:08.449Z,38.97
2023-01-29T23:41:13.160Z,40.20
2023-01-29T23:46:17.649Z,34.05
2023-01-29T23:51:23.647Z,45.58
2023-01-29T23:56:28.191Z,55.90
